Time;durP1;ratioP1;P1;durP2;ratioP2;P2;SDS_P1;SDS_P2;PMS_P1;PMS_P2;Temp;Humidity;BMP_temperature;BMP_pressure;BME280_temperature;BME280_humidity;BME280_pressure;Samples;Min_cycle;Max_cycle;Signal;HPM_P1;HPM_P2
2022/11/23 00:02:17;;;;;;;17.98;11.55;;;6.90;99.90;;;;;;5080672;28;20054;-60
2022/11/23 00:04:43;;;;;;;13.60;10.18;;;7.00;99.90;;;;;;5066668;28;20113;-57
2022/11/23 00:07:08;;;;;;;18.08;10.95;;;7.00;99.90;;;;;;5092747;28;20497;-57
2022/11/23 00:09:34;;;;;;;16.38;11.45;;;7.00;99.90;;;;;;5081896;28;20602;-57
2022/11/23 00:12:00;;;;;;;15.82;11.32;;;7.00;99.90;;;;;;5056391;28;20134;-58
2022/11/23 00:14:25;;;;;;;15.77;12.35;;;7.10;99.90;;;;;;5080162;28;20064;-61
2022/11/23 00:16:51;;;;;;;11.90;10.43;;;7.20;99.90;;;;;;5059156;28;20040;-63
2022/11/23 00:19:17;;;;;;;15.80;11.15;;;7.10;99.90;;;;;;5080645;28;20051;-62
2022/11/23 00:21:42;;;;;;;15.45;10.48;;;7.10;99.90;;;;;;5038605;28;1095180;-57
2022/11/23 00:24:11;;;;;;;11.50;9.63;;;7.10;99.90;;;;;;5079894;28;20493;-57
2022/11/23 00:26:37;;;;;;;13.30;9.90;;;7.10;99.90;;;;;;5078196;28;20051;-56
2022/11/23 00:29:02;;;;;;;13.18;9.68;;;7.10;99.90;;;;;;5079160;28;20060;-57
2022/11/23 00:31:32;;;;;;;14.25;10.32;;;7.10;99.90;;;;;;5078012;28;20047;-57
2022/11/23 00:33:57;;;;;;;14.60;10.88;;;7.10;99.90;;;;;;5080060;28;20113;-57
2022/11/23 00:36:24;;;;;;;13.10;10.32;;;7.10;99.90;;;;;;5101847;27;20492;-57
2022/11/23 00:38:50;;;;;;;16.13;11.63;;;7.20;99.90;;;;;;5077645;28;20064;-57
2022/11/23 00:41:21;;;;;;;13.13;10.57;;;7.20;99.90;;;;;;5069581;28;20541;-57
2022/11/23 00:43:47;;;;;;;14.00;11.77;;;7.40;99.90;;;;;;5055825;28;20144;-58
2022/11/23 00:46:22;;;;;;;15.70;11.35;;;7.20;99.90;;;;;;5041579;28;20063;-57
2022/11/23 00:48:50;;;;;;;12.02;10.52;;;7.20;99.90;;;;;;5060753;28;20569;-57
2022/11/23 00:51:18;;;;;;;12.57;11.13;;;8.00;99.90;;;;;;5084953;28;20062;-57
2022/11/23 00:53:44;;;;;;;13.57;10.50;;;7.20;99.90;;;;;;5087034;28;20063;-57
2022/11/23 00:56:10;;;;;;;15.30;10.85;;;7.20;99.90;;;;;;5078588;28;20047;-57
2022/11/23 00:58:39;;;;;;;15.82;11.48;;;7.20;99.90;;;;;;5077967;28;20820;-57
2022/11/23 01:01:06;;;;;;;12.57;10.38;;;7.20;99.90;;;;;;5068640;28;20206;-57
2022/11/23 01:03:32;;;;;;;13.02;10.60;;;7.40;99.90;;;;;;5077846;28;20059;-55
2022/11/23 01:06:12;;;;;;;14.40;11.07;;;7.20;99.90;;;;;;5077584;28;20095;-59
2022/11/23 01:08:39;;;;;;;13.00;11.00;;;7.20;99.90;;;;;;5085306;28;20101;-57
2022/11/23 01:11:07;;;;;;;15.45;11.77;;;7.20;99.90;;;;;;5078216;28;20067;-58
2022/11/23 01:13:34;;;;;;;15.13;10.70;;;7.20;99.90;;;;;;5077790;28;20068;-57
2022/11/23 01:16:00;;;;;;;17.50;11.85;;;7.20;99.90;;;;;;5076388;28;20070;-57
2022/11/23 01:18:26;;;;;;;14.80;10.82;;;7.20;99.90;;;;;;5057708;28;20417;-61
2022/11/23 01:20:52;;;;;;;13.43;10.63;;;7.20;99.90;;;;;;5076492;28;21038;-58
2022/11/23 01:23:17;;;;;;;17.38;11.30;;;7.20;99.90;;;;;;5079378;28;20484;-58
2022/11/23 01:25:43;;;;;;;14.40;12.05;;;7.60;99.90;;;;;;5075798;28;20056;-60
2022/11/23 01:28:09;;;;;;;17.02;11.77;;;7.30;99.90;;;;;;5078973;28;20113;-57
2022/11/23 01:30:35;;;;;;;13.40;11.73;;;7.20;99.90;;;;;;5077529;28;20063;-59
2022/11/23 01:33:02;;;;;;;13.57;11.35;;;7.30;99.90;;;;;;5077762;28;20048;-57
2022/11/23 01:35:32;;;;;;;13.30;10.88;;;7.30;99.90;;;;;;5078312;28;20052;-58
2022/11/23 01:37:58;;;;;;;12.27;10.50;;;7.50;99.90;;;;;;5100982;27;20048;-59
2022/11/23 01:40:23;;;;;;;16.50;11.27;;;7.30;99.90;;;;;;5085617;28;20105;-57
2022/11/23 01:42:56;;;;;;;14.90;11.98;;;7.30;99.90;;;;;;5072669;28;20151;-57
2022/11/23 01:45:32;;;;;;;14.25;10.95;;;7.30;99.90;;;;;;5076902;28;20209;-63
2022/11/23 01:47:58;;;;;;;14.30;10.73;;;7.30;99.90;;;;;;5082478;28;20304;-62
2022/11/23 01:50:24;;;;;;;13.90;10.65;;;7.30;99.90;;;;;;5070211;28;20580;-59
2022/11/23 01:52:50;;;;;;;16.95;11.50;;;7.30;99.90;;;;;;5086036;28;20055;-57
2022/11/23 01:55:16;;;;;;;14.05;11.07;;;7.30;99.90;;;;;;5077655;28;20448;-60
2022/11/23 01:57:43;;;;;;;13.68;10.88;;;7.50;99.90;;;;;;5075483;28;20051;-59
2022/11/23 02:00:12;;;;;;;14.95;9.70;;;7.30;99.90;;;;;;5073916;28;20056;-58
2022/11/23 02:02:44;;;;;;;13.57;11.30;;;7.30;99.90;;;;;;5077242;28;20056;-57
2022/11/23 02:05:10;;;;;;;13.25;10.45;;;7.30;99.90;;;;;;5089127;28;20060;-57
2022/11/23 02:07:37;;;;;;;12.98;10.55;;;7.30;99.90;;;;;;5079341;28;20060;-57
2022/11/23 02:10:04;;;;;;;13.55;10.80;;;7.30;99.90;;;;;;5077565;28;20055;-57
2022/11/23 02:12:33;;;;;;;12.90;9.07;;;7.30;99.90;;;;;;5077715;28;20105;-59
2022/11/23 02:14:59;;;;;;;12.73;9.43;;;7.30;99.90;;;;;;5083737;28;20090;-59
2022/11/23 02:17:25;;;;;;;15.13;9.70;;;7.30;99.90;;;;;;5077612;28;20044;-57
2022/11/23 02:20:06;;;;;;;14.30;10.00;;;7.30;99.90;;;;;;5074402;28;20546;-58
2022/11/23 02:22:37;;;;;;;12.10;10.65;;;7.30;99.90;;;;;;5053934;28;20060;-55
2022/11/23 02:25:27;;;;;;;11.40;9.82;;;7.30;99.90;;;;;;5054147;28;20105;-58
2022/11/23 02:27:53;;;;;;;14.05;10.57;;;7.30;99.90;;;;;;5075405;28;20424;-58
2022/11/23 02:30:19;;;;;;;13.48;10.02;;;7.40;99.90;;;;;;5078018;28;20048;-60
2022/11/23 02:32:45;;;;;;;11.57;9.00;;;7.40;99.90;;;;;;5074485;28;20481;-61
2022/11/23 02:35:11;;;;;;;12.18;9.77;;;7.40;99.90;;;;;;5077353;28;20087;-58
2022/11/23 02:37:38;;;;;;;14.65;9.52;;;7.40;99.90;;;;;;5076093;28;20047;-57
2022/11/23 02:40:13;;;;;;;15.13;10.07;;;7.40;99.90;;;;;;5077719;28;20060;-58
2022/11/23 02:42:39;;;;;;;15.90;9.70;;;7.40;99.90;;;;;;5063591;28;20399;-59
2022/11/23 02:45:18;;;;;;;13.15;9.57;;;7.40;99.90;;;;;;5085628;28;20147;-59
2022/11/23 02:47:43;;;;;;;11.07;9.75;;;7.40;99.90;;;;;;5061309;28;20090;-60
2022/11/23 02:50:09;;;;;;;14.65;10.35;;;7.40;99.90;;;;;;5079764;28;20125;-57
2022/11/23 02:52:35;;;;;;;15.48;10.38;;;7.40;99.90;;;;;;5082528;28;20502;-59
2022/11/23 02:55:01;;;;;;;11.10;8.50;;;7.40;99.90;;;;;;5100665;27;20452;-60
2022/11/23 02:57:27;;;;;;;12.85;10.45;;;7.40;99.90;;;;;;5086693;28;20048;-60
2022/11/23 02:59:52;;;;;;;15.40;9.77;;;7.40;99.90;;;;;;5075548;28;20056;-59
2022/11/23 03:02:18;;;;;;;10.82;9.20;;;7.50;99.90;;;;;;5079529;28;20070;-58
2022/11/23 03:04:43;;;;;;;16.30;10.40;;;7.40;99.90;;;;;;5098956;27;20054;-62
2022/11/23 03:07:09;;;;;;;9.30;8.18;;;7.40;99.90;;;;;;5084380;28;20490;-61
2022/11/23 03:09:35;;;;;;;17.95;10.07;;;7.40;99.90;;;;;;5076838;28;20224;-60
2022/11/23 03:12:00;;;;;;;10.50;8.93;;;7.50;99.90;;;;;;5078351;28;20052;-61
2022/11/23 03:14:26;;;;;;;11.43;8.57;;;7.40;99.90;;;;;;5060466;28;20060;-59
2022/11/23 03:16:52;;;;;;;11.68;8.65;;;7.50;99.90;;;;;;5076353;28;20056;-57
2022/11/23 03:19:18;;;;;;;9.05;8.15;;;7.40;99.90;;;;;;5080214;28;20093;-57
2022/11/23 03:21:43;;;;;;;11.27;8.43;;;7.50;99.90;;;;;;5076753;28;20105;-59
2022/11/23 03:24:09;;;;;;;11.77;8.85;;;7.50;99.90;;;;;;5078612;28;20098;-58
2022/11/23 03:26:34;;;;;;;9.50;7.60;;;7.50;99.90;;;;;;5077853;28;20052;-63
2022/11/23 03:29:00;;;;;;;11.45;9.40;;;7.50;99.90;;;;;;5058602;28;20052;-58
2022/11/23 03:31:26;;;;;;;9.40;7.35;;;7.80;99.90;;;;;;5057254;28;20147;-61
2022/11/23 03:33:51;;;;;;;9.32;7.93;;;7.50;99.90;;;;;;5076611;28;20068;-65
2022/11/23 03:36:17;;;;;;;12.80;7.53;;;7.50;99.90;;;;;;5079294;28;20067;-61
2022/11/23 03:38:43;;;;;;;9.43;8.07;;;7.50;99.90;;;;;;5076645;28;20060;-64
2022/11/23 03:41:08;;;;;;;11.73;9.57;;;7.50;99.90;;;;;;5079375;28;20076;-65
2022/11/23 03:43:34;;;;;;;7.90;6.88;;;7.60;99.90;;;;;;5078340;28;20536;-64
2022/11/23 03:46:00;;;;;;;7.60;6.70;;;7.50;99.90;;;;;;5076910;28;20083;-63
2022/11/23 03:48:25;;;;;;;10.57;7.85;;;7.50;99.90;;;;;;5079217;28;20117;-62
2022/11/23 03:50:51;;;;;;;8.65;7.05;;;7.50;99.90;;;;;;5075361;28;21541;-61
2022/11/23 03:53:17;;;;;;;10.20;7.72;;;7.50;99.90;;;;;;5061080;28;20439;-59
2022/11/23 03:55:45;;;;;;;9.90;7.45;;;7.50;99.90;;;;;;5076273;28;20570;-57
2022/11/23 03:58:11;;;;;;;11.38;8.10;;;7.50;99.90;;;;;;5078520;28;20052;-58
2022/11/23 04:00:37;;;;;;;12.90;8.90;;;7.60;99.90;;;;;;5076916;28;20410;-56
2022/11/23 04:03:02;;;;;;;11.15;7.22;;;7.60;99.90;;;;;;5078004;28;20135;-59
2022/11/23 04:07:57;;;;;;;16.40;8.65;;;7.60;99.90;;;;;;5083136;28;20543;-57
2022/11/23 04:10:23;;;;;;;9.98;7.88;;;8.00;99.90;;;;;;5087284;28;20083;-57
2022/11/23 04:12:52;;;;;;;13.98;7.80;;;7.50;99.90;;;;;;5086547;27;20055;-57
2022/11/23 04:15:18;;;;;;;11.30;8.27;;;7.60;99.90;;;;;;5087696;27;20054;-59
2022/11/23 04:17:44;;;;;;;10.43;8.32;;;7.50;99.90;;;;;;5065097;28;20052;-57
2022/11/23 04:20:10;;;;;;;13.85;10.45;;;7.50;99.90;;;;;;5078806;28;20088;-57
2022/11/23 04:22:36;;;;;;;9.95;7.95;;;7.50;99.90;;;;;;5093617;28;20055;-57
2022/11/23 04:25:02;;;;;;;10.60;7.30;;;7.50;99.90;;;;;;5078392;28;20117;-57
2022/11/23 04:27:27;;;;;;;14.82;8.60;;;7.50;99.90;;;;;;5078690;28;20047;-57
2022/11/23 04:29:53;;;;;;;11.90;7.78;;;7.50;99.90;;;;;;5075916;28;20909;-57
2022/11/23 04:32:19;;;;;;;16.33;9.88;;;7.50;99.90;;;;;;5071639;28;20060;-57
2022/11/23 04:34:44;;;;;;;16.48;9.85;;;7.50;99.90;;;;;;5077720;28;20144;-57
2022/11/23 04:37:10;;;;;;;16.40;8.85;;;7.50;99.90;;;;;;5097589;28;20058;-57
2022/11/23 04:39:36;;;;;;;17.95;9.80;;;7.50;99.90;;;;;;5060188;27;1088558;-57
2022/11/23 04:42:02;;;;;;;16.20;9.63;;;7.50;99.90;;;;;;5080795;28;20413;-57
2022/11/23 04:44:27;;;;;;;12.00;9.10;;;7.50;99.90;;;;;;5083270;28;20062;-57
2022/11/23 04:46:53;;;;;;;16.73;9.23;;;7.50;99.90;;;;;;5071616;28;20549;-57
2022/11/23 04:49:19;;;;;;;14.55;9.25;;;8.00;99.90;;;;;;5075570;28;20094;-57
2022/11/23 04:51:44;;;;;;;18.77;10.07;;;8.20;99.90;;;;;;5074648;28;20109;-57
2022/11/23 04:54:10;;;;;;;15.75;9.88;;;7.60;99.90;;;;;;5077502;28;20060;-57
2022/11/23 04:56:36;;;;;;;17.83;9.77;;;7.50;99.90;;;;;;5076283;27;20717;-57
2022/11/23 04:59:01;;;;;;;15.32;9.25;;;7.60;99.90;;;;;;5076826;28;20576;-57
2022/11/23 05:01:27;;;;;;;19.90;9.50;;;7.60;99.90;;;;;;5074458;28;20601;-57
2022/11/23 05:03:53;;;;;;;16.02;9.50;;;7.60;99.90;;;;;;5058320;28;20052;-57
2022/11/23 05:06:18;;;;;;;17.73;11.25;;;7.60;99.90;;;;;;5079709;28;20058;-57
2022/11/23 05:08:44;;;;;;;15.48;9.68;;;7.60;99.90;;;;;;5074787;28;20498;-60
2022/11/23 05:11:10;;;;;;;17.90;9.77;;;7.60;99.90;;;;;;5084478;28;20102;-60
2022/11/23 05:13:35;;;;;;;16.27;10.15;;;7.70;99.90;;;;;;5068808;28;20125;-58
2022/11/23 05:16:01;;;;;;;17.60;10.73;;;7.60;99.90;;;;;;5063335;28;20056;-60
2022/11/23 05:18:27;;;;;;;18.48;10.80;;;7.60;99.90;;;;;;5071802;28;20070;-60
2022/11/23 05:20:52;;;;;;;17.67;11.05;;;7.60;99.90;;;;;;5076353;28;20075;-57
2022/11/23 05:23:19;;;;;;;22.15;10.82;;;7.60;99.90;;;;;;5077918;28;20058;-57
2022/11/23 05:25:44;;;;;;;18.10;10.90;;;7.60;99.90;;;;;;5064784;28;20047;-62
2022/11/23 05:28:20;;;;;;;19.02;11.23;;;7.50;99.90;;;;;;5078831;28;20622;-60
2022/11/23 05:30:46;;;;;;;17.45;11.57;;;7.60;99.90;;;;;;5075378;28;20551;-59
2022/11/23 05:33:12;;;;;;;15.55;10.07;;;7.90;99.90;;;;;;5084854;28;20372;-63
2022/11/23 05:35:38;;;;;;;22.58;12.18;;;7.60;99.90;;;;;;5070362;28;20059;-58
2022/11/23 05:38:04;;;;;;;19.98;12.82;;;7.60;99.90;;;;;;5066691;28;20048;-57
2022/11/23 05:40:33;;;;;;;18.73;12.55;;;7.60;99.90;;;;;;5069856;28;20068;-57
2022/11/23 05:42:59;;;;;;;19.17;12.07;;;7.60;99.90;;;;;;5091000;28;20085;-58
2022/11/23 05:45:26;;;;;;;17.45;11.48;;;7.60;99.90;;;;;;5079095;28;20052;-60
2022/11/23 05:47:53;;;;;;;19.63;11.80;;;7.60;99.90;;;;;;5080744;28;20854;-57
2022/11/23 05:50:20;;;;;;;20.10;13.00;;;7.80;99.90;;;;;;5060262;28;20060;-57
2022/11/23 05:52:46;;;;;;;18.00;13.20;;;7.60;99.90;;;;;;5066224;28;20053;-56
2022/11/23 05:55:12;;;;;;;19.48;12.13;;;7.60;99.90;;;;;;5079791;28;20098;-57
2022/11/23 05:57:38;;;;;;;22.25;12.30;;;7.60;99.90;;;;;;5062907;28;20063;-57
2022/11/23 06:00:05;;;;;;;18.30;12.23;;;7.60;99.90;;;;;;5088955;28;20059;-57
2022/11/23 06:02:32;;;;;;;18.35;12.88;;;7.60;99.90;;;;;;5071173;28;20056;-57
2022/11/23 06:04:58;;;;;;;19.90;13.15;;;7.70;99.90;;;;;;5080116;28;20056;-58
2022/11/23 06:07:24;;;;;;;19.52;11.73;;;7.70;99.90;;;;;;5059589;28;20094;-57
2022/11/23 06:09:49;;;;;;;16.60;11.18;;;7.60;99.90;;;;;;5080503;28;20067;-57
2022/11/23 06:12:15;;;;;;;20.33;12.93;;;7.70;99.90;;;;;;5072902;28;20052;-57
2022/11/23 06:14:40;;;;;;;23.73;12.45;;;7.70;99.90;;;;;;5068040;28;20121;-57
2022/11/23 06:17:06;;;;;;;20.73;12.10;;;7.70;99.90;;;;;;5068497;28;20096;-57
2022/11/23 06:19:32;;;;;;;19.42;11.60;;;7.60;99.90;;;;;;5061043;28;20414;-55
2022/11/23 06:21:57;;;;;;;18.77;12.73;;;7.60;99.90;;;;;;5055905;28;20464;-57
2022/11/23 06:24:24;;;;;;;22.52;11.40;;;7.60;99.90;;;;;;5052803;28;20061;-57
2022/11/23 06:26:51;;;;;;;22.20;11.98;;;7.60;99.90;;;;;;5071716;28;20052;-57
2022/11/23 06:29:17;;;;;;;16.95;11.32;;;7.60;99.90;;;;;;5071179;28;20088;-58
2022/11/23 06:31:43;;;;;;;18.63;11.07;;;7.70;99.90;;;;;;5076869;28;20083;-58
2022/11/23 06:34:09;;;;;;;19.85;10.82;;;7.60;99.90;;;;;;5077382;28;20164;-58
2022/11/23 06:36:34;;;;;;;25.40;11.18;;;7.60;99.90;;;;;;5062205;28;20083;-58
2022/11/23 06:39:00;;;;;;;18.73;10.63;;;7.50;99.90;;;;;;5071054;28;20048;-58
2022/11/23 06:41:26;;;;;;;15.23;8.82;;;7.50;99.90;;;;;;5073328;28;20071;-58
2022/11/23 06:43:51;;;;;;;16.33;9.70;;;7.80;99.90;;;;;;5084094;28;20048;-58
2022/11/23 06:46:17;;;;;;;13.85;9.02;;;7.50;99.90;;;;;;5075949;28;20051;-58
2022/11/23 06:48:44;;;;;;;16.17;9.57;;;7.50;99.90;;;;;;5082556;28;20450;-57
2022/11/23 06:51:10;;;;;;;21.50;9.88;;;7.40;99.90;;;;;;5072523;28;20172;-57
2022/11/23 06:53:35;;;;;;;16.33;10.13;;;7.50;99.90;;;;;;5082327;28;20138;-56
2022/11/23 06:56:01;;;;;;;15.35;8.95;;;7.50;99.90;;;;;;5078562;28;20064;-58
2022/11/23 06:58:27;;;;;;;17.42;8.13;;;7.40;99.90;;;;;;5082724;28;20062;-59
2022/11/23 07:00:53;;;;;;;14.82;8.85;;;7.40;99.90;;;;;;5085962;27;20055;-58
2022/11/23 07:03:21;;;;;;;18.00;8.55;;;7.40;99.90;;;;;;5073387;28;20094;-58
2022/11/23 07:05:47;;;;;;;13.43;8.85;;;7.40;99.90;;;;;;5085525;28;20052;-58
2022/11/23 07:08:13;;;;;;;15.18;8.98;;;7.30;99.90;;;;;;5081189;28;20395;-58
2022/11/23 07:10:39;;;;;;;17.27;8.45;;;7.30;99.90;;;;;;5078932;28;20058;-58
2022/11/23 07:13:06;;;;;;;16.63;8.73;;;7.50;99.90;;;;;;5082397;28;20133;-59
2022/11/23 07:15:32;;;;;;;16.48;8.60;;;7.30;99.90;;;;;;5072269;28;20881;-56
2022/11/23 07:17:58;;;;;;;14.25;8.27;;;7.30;99.90;;;;;;5087253;28;20056;-58
2022/11/23 07:20:24;;;;;;;14.10;7.45;;;7.30;99.90;;;;;;5080004;28;20063;-58
2022/11/23 07:23:00;;;;;;;12.85;7.60;;;7.30;99.90;;;;;;5083668;28;20397;-57
2022/11/23 07:25:27;;;;;;;11.38;7.07;;;7.40;99.90;;;;;;5065192;28;20412;-57
2022/11/23 07:27:57;;;;;;;14.68;7.57;;;7.30;99.90;;;;;;5087992;28;20059;-57
2022/11/23 07:30:24;;;;;;;13.73;7.45;;;7.30;99.90;;;;;;5065629;28;20052;-58
2022/11/23 07:32:51;;;;;;;12.70;7.68;;;7.30;99.90;;;;;;5076526;28;20842;-57
2022/11/23 07:35:17;;;;;;;13.30;7.75;;;7.30;99.90;;;;;;5080269;28;20651;-57
2022/11/23 07:37:43;;;;;;;12.70;6.25;;;7.30;99.90;;;;;;5084091;28;20135;-57
2022/11/23 07:40:09;;;;;;;12.25;6.57;;;7.40;99.90;;;;;;5084440;28;20065;-57
2022/11/23 07:42:35;;;;;;;14.65;6.35;;;7.40;99.90;;;;;;5081745;28;20056;-57
2022/11/23 07:45:02;;;;;;;18.45;7.30;;;7.40;99.90;;;;;;5082061;28;20075;-57
2022/11/23 07:47:27;;;;;;;14.50;6.40;;;7.40;99.90;;;;;;5066140;28;20512;-57
2022/11/23 07:49:53;;;;;;;19.30;6.38;;;7.40;99.90;;;;;;5068419;28;20057;-57
2022/11/23 07:52:19;;;;;;;15.63;5.90;;;7.40;99.90;;;;;;5070379;28;20062;-57
2022/11/23 07:54:44;;;;;;;10.57;5.13;;;7.50;99.90;;;;;;5075390;28;20093;-56
2022/11/23 07:57:10;;;;;;;14.98;6.25;;;7.50;99.90;;;;;;5080018;28;20063;-57
2022/11/23 07:59:36;;;;;;;14.65;5.43;;;7.50;99.90;;;;;;5066063;28;20055;-56
2022/11/23 08:02:02;;;;;;;9.18;5.05;;;7.50;99.90;;;;;;5069048;28;20117;-57
2022/11/23 08:04:28;;;;;;;14.25;5.50;;;7.80;99.90;;;;;;5053092;28;20052;-56
2022/11/23 08:06:58;;;;;;;9.60;4.97;;;7.50;99.90;;;;;;5071099;28;20148;-57
2022/11/23 08:09:23;;;;;;;13.80;5.07;;;7.50;99.90;;;;;;5088196;28;20075;-57
2022/11/23 08:11:49;;;;;;;11.85;4.45;;;7.50;99.90;;;;;;5075455;28;20465;-58
2022/11/23 08:14:15;;;;;;;11.75;5.13;;;7.50;99.90;;;;;;5092246;28;20056;-58
2022/11/23 08:16:40;;;;;;;13.60;5.32;;;7.60;99.90;;;;;;5063675;28;20059;-58
2022/11/23 08:19:06;;;;;;;12.13;4.95;;;7.60;99.90;;;;;;5096153;28;20070;-58
2022/11/23 08:21:32;;;;;;;15.63;5.78;;;7.60;99.90;;;;;;5063251;28;20433;-53
2022/11/23 08:23:57;;;;;;;11.95;4.93;;;7.70;99.90;;;;;;5059058;28;20136;-57
2022/11/23 08:26:23;;;;;;;12.85;4.63;;;7.70;99.90;;;;;;5067213;28;20143;-57
2022/11/23 08:28:49;;;;;;;12.23;4.60;;;7.80;99.90;;;;;;5064417;28;20060;-58
2022/11/23 08:31:14;;;;;;;9.88;4.82;;;7.70;99.90;;;;;;5067805;28;20083;-57
2022/11/23 08:33:40;;;;;;;8.60;5.55;;;7.70;99.90;;;;;;5072164;28;20703;-57
2022/11/23 08:36:07;;;;;;;8.93;4.25;;;8.10;99.90;;;;;;5059311;28;20146;-58
2022/11/23 08:38:34;;;;;;;12.25;3.83;;;7.80;99.90;;;;;;5075277;28;20075;-56
2022/11/23 08:41:01;;;;;;;9.07;4.63;;;7.90;99.90;;;;;;5065073;28;20052;-61
2022/11/23 08:43:28;;;;;;;10.05;5.55;;;7.90;99.90;;;;;;5067596;28;20052;-64
2022/11/23 08:45:58;;;;;;;11.57;4.70;;;8.00;99.90;;;;;;5067236;28;20538;-57
2022/11/23 08:48:24;;;;;;;13.85;3.78;;;8.10;99.90;;;;;;5063193;28;20232;-59
2022/11/23 08:50:50;;;;;;;8.85;4.00;;;8.40;99.90;;;;;;5043845;28;20052;-58
2022/11/23 08:53:16;;;;;;;7.38;4.53;;;8.20;99.90;;;;;;5079672;28;20060;-57
2022/11/23 08:55:42;;;;;;;12.60;3.92;;;8.20;99.90;;;;;;5030245;28;1127459;-59
2022/11/23 08:58:08;;;;;;;12.98;5.03;;;8.20;99.90;;;;;;5072881;28;20070;-57
2022/11/23 09:00:35;;;;;;;11.30;3.70;;;8.20;99.90;;;;;;5083284;28;20087;-58
2022/11/23 09:03:01;;;;;;;11.80;3.88;;;8.30;99.90;;;;;;5061197;28;20053;-62
2022/11/23 09:05:28;;;;;;;5.47;4.45;;;8.30;99.90;;;;;;5068616;28;20056;-61
2022/11/23 09:07:55;;;;;;;9.65;4.25;;;8.60;99.90;;;;;;5086051;28;20499;-62
2022/11/23 09:10:20;;;;;;;6.55;3.38;;;8.40;99.90;;;;;;5083909;28;20528;-61
2022/11/23 09:12:47;;;;;;;10.07;3.70;;;8.50;99.90;;;;;;5069418;28;20519;-60
2022/11/23 09:15:13;;;;;;;12.07;3.95;;;8.60;99.90;;;;;;5078373;28;20055;-59
2022/11/23 09:17:38;;;;;;;10.48;4.47;;;8.90;99.90;;;;;;5065948;28;20059;-59
2022/11/23 09:20:05;;;;;;;9.57;4.50;;;8.70;99.90;;;;;;5076267;28;20141;-60
2022/11/23 09:22:33;;;;;;;15.00;4.35;;;8.70;99.90;;;;;;5065538;28;20803;-58
2022/11/23 09:24:59;;;;;;;8.88;4.32;;;8.70;99.90;;;;;;5079655;28;20509;-57
2022/11/23 09:27:25;;;;;;;9.85;4.97;;;10.20;99.90;;;;;;5078505;28;20062;-59
2022/11/23 09:29:50;;;;;;;13.32;3.92;;;9.00;99.90;;;;;;5059672;28;20060;-61
2022/11/23 09:32:16;;;;;;;16.80;5.00;;;9.10;99.90;;;;;;5085850;28;20460;-59
2022/11/23 09:34:42;;;;;;;9.20;4.32;;;9.10;99.90;;;;;;5052237;28;20045;-57
2022/11/23 09:37:08;;;;;;;9.15;3.90;;;9.10;99.90;;;;;;5066739;28;20066;-63
2022/11/23 09:39:34;;;;;;;15.98;4.78;;;9.30;99.90;;;;;;5063191;28;20052;-60
2022/11/23 09:42:18;;;;;;;13.85;4.78;;;9.40;99.90;;;;;;5063545;28;20067;-58
2022/11/23 09:45:02;;;;;;;6.38;4.20;;;9.50;99.90;;;;;;5070478;28;20766;-57
2022/11/23 09:50:23;;;;;;;12.32;4.00;;;9.60;99.90;;;;;;5081496;28;20112;-57
2022/11/23 09:52:50;;;;;;;9.68;3.97;;;9.40;99.90;;;;;;5080860;28;20067;-60
2022/11/23 09:55:32;;;;;;;13.75;3.78;;;9.50;99.90;;;;;;5073681;28;20088;-60
2022/11/23 09:58:03;;;;;;;13.50;4.15;;;9.60;99.90;;;;;;5067912;28;21224;-57
2022/11/23 10:00:56;;;;;;;12.73;3.63;;;9.50;99.90;;;;;;5079816;27;20056;-61
2022/11/23 10:03:21;;;;;;;9.43;3.63;;;9.40;99.90;;;;;;5075457;28;20156;-57
2022/11/23 10:06:00;;;;;;;11.15;4.05;;;9.40;99.90;;;;;;5073673;28;20553;-56
2022/11/23 10:08:32;;;;;;;10.10;3.33;;;9.50;99.90;;;;;;5082971;28;20067;-59
2022/11/23 10:11:24;;;;;;;12.40;3.53;;;9.70;99.90;;;;;;5076269;28;20224;-58
2022/11/23 10:14:19;;;;;;;8.05;3.90;;;9.60;99.90;;;;;;5072304;28;20155;-57
2022/11/23 10:17:03;;;;;;;5.15;2.65;;;9.60;99.90;;;;;;5070689;28;20642;-57
2022/11/23 10:19:45;;;;;;;10.82;3.10;;;9.60;99.90;;;;;;5074436;28;20056;-58
2022/11/23 10:22:25;;;;;;;8.98;3.92;;;9.60;99.90;;;;;;5086001;28;20117;-57
2022/11/23 10:24:52;;;;;;;10.77;3.33;;;9.70;99.90;;;;;;5078770;28;20481;-57
2022/11/23 10:27:21;;;;;;;10.82;3.30;;;9.70;99.90;;;;;;5074382;28;20130;-58
2022/11/23 10:29:48;;;;;;;9.90;4.40;;;9.70;99.90;;;;;;5073064;28;20060;-58
2022/11/23 10:32:32;;;;;;;10.18;3.95;;;9.10;99.90;;;;;;5084827;28;20052;-57
2022/11/23 10:38:19;;;;;;;9.15;3.63;;;9.60;99.90;;;;;;5079117;28;20853;-63
2022/11/23 10:41:09;;;;;;;11.02;2.97;;;9.50;99.90;;;;;;5045515;28;20139;-61
2022/11/23 10:44:04;;;;;;;9.93;2.72;;;9.40;99.90;;;;;;5060491;28;20059;-57
2022/11/23 10:46:34;;;;;;;11.02;4.47;;;9.40;99.90;;;;;;5073110;28;20074;-66
2022/11/23 10:49:14;;;;;;;9.15;2.58;;;9.60;99.90;;;;;;5080292;28;20518;-64
2022/11/23 10:51:47;;;;;;;8.52;2.78;;;9.40;99.90;;;;;;5065944;28;20060;-62
2022/11/23 10:54:21;;;;;;;8.50;4.10;;;9.30;99.90;;;;;;5076552;28;20066;-66
2022/11/23 10:56:48;;;;;;;10.75;3.50;;;9.30;99.90;;;;;;5074714;28;20084;-66
2022/11/23 10:59:32;;;;;;;10.80;3.17;;;9.30;99.90;;;;;;5079811;28;20052;-58
2022/11/23 11:02:00;;;;;;;13.60;2.83;;;9.30;99.90;;;;;;5072749;28;20049;-58
2022/11/23 11:04:26;;;;;;;6.93;2.55;;;9.30;99.90;;;;;;5070775;28;20536;-60
2022/11/23 11:10:00;;;;;;;7.95;3.17;;;9.30;99.90;;;;;;5068827;28;20617;-57
2022/11/23 11:12:28;;;;;;;10.02;2.45;;;9.30;99.90;;;;;;5061368;28;20071;-60
2022/11/23 11:15:03;;;;;;;12.20;3.17;;;9.20;99.90;;;;;;5063774;28;21208;-57
2022/11/23 11:17:34;;;;;;;8.05;2.30;;;9.20;99.90;;;;;;5079112;28;20074;-57
2022/11/23 11:20:17;;;;;;;11.75;2.42;;;9.20;99.90;;;;;;5091537;28;20060;-61
2022/11/23 11:22:43;;;;;;;8.70;2.53;;;9.20;99.90;;;;;;5081290;28;20576;-60
2022/11/23 11:25:28;;;;;;;9.10;2.30;;;9.20;99.90;;;;;;5083215;28;20142;-58
2022/11/23 11:27:54;;;;;;;12.63;2.70;;;9.40;99.90;;;;;;5084191;28;20745;-64
2022/11/23 11:30:23;;;;;;;11.95;2.50;;;9.60;99.90;;;;;;5093505;27;20097;-64
2022/11/23 11:36:00;;;;;;;11.23;2.53;;;9.60;99.90;;;;;;5092132;28;21152;-57
2022/11/23 11:38:32;;;;;;;11.65;3.20;;;9.50;99.90;;;;;;5081577;28;20056;-57
2022/11/23 11:41:23;;;;;;;8.57;2.55;;;9.70;99.90;;;;;;5075294;28;20090;-63
2022/11/23 11:44:01;;;;;;;8.68;2.53;;;9.80;99.90;;;;;;5074142;28;20051;-59
2022/11/23 11:49:16;;;;;;;12.07;2.67;;;10.10;99.90;;;;;;5064887;28;20048;-59
2022/11/23 11:51:45;;;;;;;;;;;10.50;99.90;;;;;;5069370;28;20056;-63
2022/11/23 11:54:34;;;;;;;11.82;2.45;;;10.40;99.90;;;;;;5070027;28;19928;-63
2022/11/23 11:57:05;;;;;;;9.70;2.60;;;10.30;99.90;;;;;;5068253;28;20053;-58
2022/11/23 11:59:43;;;;;;;11.77;3.53;;;10.50;99.90;;;;;;5086389;28;20052;-58
2022/11/23 12:02:32;;;;;;;11.85;3.00;;;10.80;99.90;;;;;;5078971;28;20064;-57
2022/11/23 12:05:21;;;;;;;16.15;3.13;;;10.90;99.90;;;;;;5057379;28;20615;-57
2022/11/23 12:08:01;;;;;;;10.75;2.50;;;10.60;99.90;;;;;;5078355;27;20048;-57
2022/11/23 12:12:55;;;;;;;11.95;2.42;;;10.70;99.90;;;;;;5074583;28;20133;-62
2022/11/23 12:15:32;;;;;;;4.45;2.55;;;10.60;99.90;;;;;;5089535;28;20056;-57
2022/11/23 12:18:16;;;;;;;11.32;3.47;;;10.60;99.90;;;;;;5075289;28;20056;-58
2022/11/23 12:21:08;;;;;;;18.27;3.65;;;10.60;99.90;;;;;;5070689;28;20048;-59
2022/11/23 12:24:12;;;;;;;10.98;2.83;;;10.60;99.90;;;;;;5059642;28;20057;-61
2022/11/23 12:26:49;;;;;;;9.95;2.67;;;10.60;99.90;;;;;;5049045;28;20053;-56
2022/11/23 12:29:32;;;;;;;11.00;2.70;;;10.70;99.90;;;;;;5077371;28;20501;-57
2022/11/23 12:32:07;;;;;;;9.23;2.55;;;10.70;99.90;;;;;;5060132;28;20067;-57
2022/11/23 12:34:49;;;;;;;10.25;2.15;;;10.80;99.90;;;;;;5069555;28;20048;-56
2022/11/23 12:37:32;;;;;;;7.25;2.45;;;10.90;99.90;;;;;;5056456;28;20557;-57
2022/11/23 12:40:04;;;;;;;14.77;3.08;;;10.90;99.90;;;;;;5060974;28;20182;-57
2022/11/23 12:42:37;;;;;;;6.68;2.45;;;10.90;99.90;;;;;;5076210;28;20493;-56
2022/11/23 12:45:27;;;;;;;6.97;2.30;;;10.90;99.90;;;;;;5074132;28;20088;-57
2022/11/23 12:47:59;;;;;;;7.60;2.00;;;10.90;99.90;;;;;;5063187;28;20065;-57
2022/11/23 12:50:34;;;;;;;7.95;3.10;;;11.00;99.90;;;;;;5070777;28;20051;-66
2022/11/23 12:53:25;;;;;;;9.90;2.20;;;10.90;99.90;;;;;;5061803;27;20130;-60
2022/11/23 12:56:26;;;;;;;11.82;2.20;;;11.00;99.90;;;;;;5074521;28;20072;-61
2022/11/23 12:58:54;;;;;;;9.60;2.35;;;11.20;99.90;;;;;;5070762;28;20468;-60
2022/11/23 13:01:33;;;;;;;10.18;2.55;;;11.20;99.90;;;;;;5075240;28;20059;-66
2022/11/23 13:04:17;;;;;;;8.35;2.63;;;11.20;99.90;;;;;;5055596;28;20414;-64
2022/11/23 13:06:43;;;;;;;8.50;1.60;;;11.10;99.90;;;;;;5060371;27;20058;-66
2022/11/23 13:09:32;;;;;;;10.60;3.22;;;11.20;99.90;;;;;;5073958;28;20416;-58
2022/11/23 13:12:34;;;;;;;14.10;3.03;;;11.10;99.90;;;;;;5042445;28;1106468;-67
2022/11/23 13:15:32;;;;;;;12.73;2.65;;;11.10;99.90;;;;;;5074801;28;20066;-66
2022/11/23 13:18:05;;;;;;;8.13;1.90;;;10.90;99.90;;;;;;5089244;27;20939;-63